Time;durP1;ratioP1;P1;durP2;ratioP2;P2;SDS_P1;SDS_P2;PMS_P1;PMS_P2;Temp;Humidity;BMP_temperature;BMP_pressure;BME280_temperature;BME280_humidity;BME280_pressure;Samples;Min_cycle;Max_cycle;Signal;HPM_P1;HPM_P2
2023/10/30 00:00:54;;;;;;;3.80;0.90;;;;;;;;;;5013252;28;20467;-68
2023/10/30 00:03:23;;;;;;;1.70;0.70;;;;;;;;;;5020008;28;20814;-68
2023/10/30 00:05:50;;;;;;;1.80;0.73;;;;;;;;;;5005739;28;20475;-69
2023/10/30 00:08:18;;;;;;;1.80;0.77;;;;;;;;;;5017404;28;20444;-69
2023/10/30 00:10:45;;;;;;;1.80;0.80;;;;;;;;;;5004802;28;20465;-69
2023/10/30 00:13:12;;;;;;;2.30;0.80;;;;;;;;;;5007947;28;20475;-69
2023/10/30 00:15:39;;;;;;;2.10;0.73;;;;;;;;;;5013934;28;20477;-69
2023/10/30 00:18:07;;;;;;;1.93;0.80;;;;;;;;;;5021445;28;20859;-68
2023/10/30 00:20:38;;;;;;;2.20;0.97;;;;;;;;;;5008815;28;20540;-69
2023/10/30 00:23:05;;;;;;;2.07;0.90;;;;;;;;;;5000353;28;20524;-67
2023/10/30 00:25:32;;;;;;;2.53;0.83;;;;;;;;;;5004281;28;20491;-69
2023/10/30 00:28:00;;;;;;;2.40;1.00;;;;;;;;;;5021636;28;21000;-67
2023/10/30 00:30:27;;;;;;;3.83;1.27;;;;;;;;;;5017027;28;20486;-68
2023/10/30 00:32:54;;;;;;;2.00;0.87;;;;;;;;;;5016291;28;20539;-67
2023/10/30 00:35:21;;;;;;;2.73;0.93;;;;;;;;;;5015222;28;20910;-68
2023/10/30 00:37:50;;;;;;;2.37;0.80;;;;;;;;;;5021063;28;20443;-68
2023/10/30 00:40:17;;;;;;;1.90;0.73;;;;;;;;;;4997469;28;20527;-68
2023/10/30 00:42:44;;;;;;;2.00;1.30;;;;;;;;;;5013175;28;20459;-68
2023/10/30 00:45:11;;;;;;;2.13;0.83;;;;;;;;;;5007710;28;20844;-68
2023/10/30 00:47:39;;;;;;;2.30;0.93;;;;;;;;;;5012075;28;20456;-68
2023/10/30 00:50:07;;;;;;;1.90;0.83;;;;;;;;;;5010776;28;20495;-68
2023/10/30 00:52:34;;;;;;;3.37;0.80;;;;;;;;;;5004092;28;20448;-68
2023/10/30 00:55:03;;;;;;;1.60;0.80;;;;;;;;;;5008136;28;20820;-68
2023/10/30 00:57:30;;;;;;;1.93;0.93;;;;;;;;;;5003245;28;20962;-68
2023/10/30 00:59:57;;;;;;;3.23;1.30;;;;;;;;;;5005636;28;20463;-68
2023/10/30 01:02:24;;;;;;;2.10;1.00;;;;;;;;;;5003550;28;20459;-68
2023/10/30 01:04:51;;;;;;;2.10;1.00;;;;;;;;;;5007907;28;20838;-68
2023/10/30 01:07:18;;;;;;;2.10;0.90;;;;;;;;;;5004040;28;20445;-68
2023/10/30 01:09:45;;;;;;;3.03;1.30;;;;;;;;;;4997793;28;20448;-68
2023/10/30 01:12:14;;;;;;;2.27;0.90;;;;;;;;;;5002480;28;20498;-68
2023/10/30 01:14:41;;;;;;;1.80;0.80;;;;;;;;;;5001868;28;21040;-68
2023/10/30 01:17:08;;;;;;;1.67;0.70;;;;;;;;;;5011239;28;20468;-68
2023/10/30 01:19:35;;;;;;;2.23;0.90;;;;;;;;;;5005123;28;20466;-68
2023/10/30 01:22:02;;;;;;;2.70;1.27;;;;;;;;;;5002007;28;20471;-68
2023/10/30 01:24:29;;;;;;;2.47;1.13;;;;;;;;;;4997197;28;20985;-68
2023/10/30 01:26:56;;;;;;;2.70;1.20;;;;;;;;;;5001481;28;20491;-68
2023/10/30 01:29:24;;;;;;;2.10;0.90;;;;;;;;;;5002218;28;20445;-68
2023/10/30 01:31:51;;;;;;;1.97;0.77;;;;;;;;;;5008901;28;20448;-68
2023/10/30 01:34:18;;;;;;;2.03;0.80;;;;;;;;;;5003156;28;20488;-68
2023/10/30 01:36:45;;;;;;;2.10;1.00;;;;;;;;;;5008323;28;20473;-68
2023/10/30 01:39:12;;;;;;;2.00;0.90;;;;;;;;;;5007269;28;20460;-68
2023/10/30 01:41:41;;;;;;;2.77;0.80;;;;;;;;;;5003526;28;20471;-67
2023/10/30 01:44:08;;;;;;;2.40;0.90;;;;;;;;;;5001316;28;20560;-68
2023/10/30 01:46:37;;;;;;;2.60;1.10;;;;;;;;;;5015531;28;20472;-68
2023/10/30 01:49:04;;;;;;;3.00;0.90;;;;;;;;;;5009503;28;20448;-68
2023/10/30 01:51:31;;;;;;;2.30;1.23;;;;;;;;;;5002772;28;20459;-68
2023/10/30 01:53:58;;;;;;;1.83;0.77;;;;;;;;;;5007599;28;20472;-68
2023/10/30 01:56:25;;;;;;;1.57;0.67;;;;;;;;;;5002696;28;20484;-68
2023/10/30 01:58:53;;;;;;;1.93;0.90;;;;;;;;;;5011196;28;20448;-68
2023/10/30 02:01:20;;;;;;;1.83;0.80;;;;;;;;;;5006751;28;20444;-68
2023/10/30 02:03:48;;;;;;;2.13;0.80;;;;;;;;;;5000526;28;20452;-68
2023/10/30 02:06:16;;;;;;;2.50;0.80;;;;;;;;;;5008992;28;20526;-68
2023/10/30 02:08:43;;;;;;;4.20;1.00;;;;;;;;;;5003744;28;20942;-68
2023/10/30 02:11:10;;;;;;;1.90;0.80;;;;;;;;;;5002363;28;20465;-68
2023/10/30 02:13:37;;;;;;;2.20;0.77;;;;;;;;;;5008824;28;20483;-68
2023/10/30 02:16:04;;;;;;;2.47;1.03;;;;;;;;;;5004935;28;20878;-68
2023/10/30 02:18:31;;;;;;;1.80;0.83;;;;;;;;;;4997510;28;20465;-68
2023/10/30 02:21:00;;;;;;;3.10;1.10;;;;;;;;;;5004819;28;20451;-68
2023/10/30 02:23:27;;;;;;;1.87;0.77;;;;;;;;;;4998871;28;20834;-68
2023/10/30 02:25:55;;;;;;;2.50;1.07;;;;;;;;;;5006381;28;20850;-68
2023/10/30 02:28:23;;;;;;;2.00;0.80;;;;;;;;;;5000822;28;20434;-68
2023/10/30 02:30:50;;;;;;;2.00;0.80;;;;;;;;;;4997602;28;20864;-68
2023/10/30 02:33:17;;;;;;;2.50;1.30;;;;;;;;;;5005215;28;20466;-68
2023/10/30 02:35:44;;;;;;;2.47;0.90;;;;;;;;;;5008097;28;20481;-68
2023/10/30 02:38:11;;;;;;;2.20;0.90;;;;;;;;;;5003233;28;20475;-68
2023/10/30 02:40:38;;;;;;;2.00;0.77;;;;;;;;;;5009290;28;20452;-68
2023/10/30 02:43:07;;;;;;;2.03;0.80;;;;;;;;;;5004694;28;20451;-68
2023/10/30 02:45:34;;;;;;;2.33;1.13;;;;;;;;;;5008426;28;20930;-68
2023/10/30 02:48:01;;;;;;;2.00;0.80;;;;;;;;;;5000556;28;20488;-68
2023/10/30 02:50:28;;;;;;;1.90;0.90;;;;;;;;;;5005153;28;20862;-68
2023/10/30 02:52:55;;;;;;;1.93;0.80;;;;;;;;;;5009210;28;20958;-68
2023/10/30 02:55:22;;;;;;;2.43;1.40;;;;;;;;;;5010109;28;20512;-68
2023/10/30 02:57:50;;;;;;;4.17;1.17;;;;;;;;;;5010202;28;20808;-68
2023/10/30 03:00:19;;;;;;;1.87;0.93;;;;;;;;;;5012142;28;21139;-68
2023/10/30 03:02:46;;;;;;;1.80;0.90;;;;;;;;;;5005115;28;20942;-68
2023/10/30 03:05:13;;;;;;;2.00;0.90;;;;;;;;;;5006403;28;20546;-68
2023/10/30 03:07:40;;;;;;;3.53;1.13;;;;;;;;;;5015130;28;20444;-68
2023/10/30 03:10:09;;;;;;;2.53;1.20;;;;;;;;;;5011999;28;20961;-68
2023/10/30 03:12:36;;;;;;;2.00;0.90;;;;;;;;;;5012975;28;20537;-68
2023/10/30 03:15:03;;;;;;;2.07;1.00;;;;;;;;;;5009572;28;20476;-68
2023/10/30 03:17:31;;;;;;;2.40;1.23;;;;;;;;;;5003804;28;20507;-68
2023/10/30 03:19:58;;;;;;;2.23;0.90;;;;;;;;;;5006217;28;20832;-68
2023/10/30 03:22:25;;;;;;;2.57;1.07;;;;;;;;;;5009425;28;20464;-68
2023/10/30 03:24:52;;;;;;;2.27;1.00;;;;;;;;;;5013935;28;20924;-68
2023/10/30 03:27:20;;;;;;;1.93;0.67;;;;;;;;;;5008640;28;21269;-68
2023/10/30 03:29:47;;;;;;;1.73;0.80;;;;;;;;;;5007775;28;20913;-68
2023/10/30 03:32:14;;;;;;;2.00;0.90;;;;;;;;;;5004975;28;20448;-68
2023/10/30 03:34:42;;;;;;;2.27;1.07;;;;;;;;;;5008719;28;20787;-68
2023/10/30 03:37:09;;;;;;;1.87;0.80;;;;;;;;;;5012050;28;20844;-68
2023/10/30 03:39:37;;;;;;;2.73;1.37;;;;;;;;;;5013976;28;20452;-69
2023/10/30 03:42:04;;;;;;;2.20;1.00;;;;;;;;;;5009389;28;20444;-68
2023/10/30 03:44:31;;;;;;;1.80;0.80;;;;;;;;;;5009629;28;20502;-69
2023/10/30 03:46:58;;;;;;;1.70;0.80;;;;;;;;;;5011708;28;20866;-68
2023/10/30 03:49:25;;;;;;;1.83;0.70;;;;;;;;;;5002460;28;20454;-69
2023/10/30 03:51:54;;;;;;;3.07;1.57;;;;;;;;;;5011916;28;20456;-68
2023/10/30 03:54:22;;;;;;;1.90;0.87;;;;;;;;;;5006056;28;20480;-68
2023/10/30 03:56:49;;;;;;;3.10;1.20;;;;;;;;;;5006262;28;20539;-68
2023/10/30 03:59:16;;;;;;;2.13;1.03;;;;;;;;;;5011934;28;20459;-68
2023/10/30 04:01:43;;;;;;;2.50;1.10;;;;;;;;;;5008507;28;21146;-69
2023/10/30 04:04:10;;;;;;;2.00;1.00;;;;;;;;;;5006680;28;20446;-68
2023/10/30 04:06:38;;;;;;;2.53;1.00;;;;;;;;;;5011437;28;20467;-68
2023/10/30 04:09:06;;;;;;;1.70;0.60;;;;;;;;;;5005685;28;20447;-69
2023/10/30 04:11:34;;;;;;;1.73;0.70;;;;;;;;;;5011129;28;20467;-68
2023/10/30 04:14:01;;;;;;;2.93;1.30;;;;;;;;;;5013717;28;20883;-68
2023/10/30 04:16:28;;;;;;;2.00;1.10;;;;;;;;;;5008896;28;20979;-68
2023/10/30 04:18:55;;;;;;;2.37;1.03;;;;;;;;;;5006472;28;20445;-68
2023/10/30 04:21:23;;;;;;;2.13;0.93;;;;;;;;;;5005638;28;20456;-69
2023/10/30 04:23:50;;;;;;;2.43;0.90;;;;;;;;;;5012433;28;20804;-68
2023/10/30 04:26:19;;;;;;;2.30;1.10;;;;;;;;;;5011821;28;20471;-68
2023/10/30 04:28:46;;;;;;;2.00;0.80;;;;;;;;;;4997931;28;20483;-68
2023/10/30 04:31:13;;;;;;;1.83;0.83;;;;;;;;;;5009569;28;20983;-69
2023/10/30 04:33:40;;;;;;;1.80;0.70;;;;;;;;;;5004272;28;20970;-68
2023/10/30 04:36:08;;;;;;;1.70;0.67;;;;;;;;;;5007358;28;20483;-69
2023/10/30 04:38:36;;;;;;;2.03;0.77;;;;;;;;;;5008313;28;20468;-68
2023/10/30 04:41:04;;;;;;;2.30;0.87;;;;;;;;;;5005891;28;20452;-68
2023/10/30 04:43:32;;;;;;;2.53;1.00;;;;;;;;;;5003061;28;20460;-69
2023/10/30 04:45:59;;;;;;;2.60;1.20;;;;;;;;;;5008377;28;20468;-69
2023/10/30 04:48:26;;;;;;;3.23;0.87;;;;;;;;;;5003342;28;20495;-68
2023/10/30 04:50:53;;;;;;;7.37;1.70;;;;;;;;;;5002026;28;20775;-68
2023/10/30 04:53:20;;;;;;;1.97;0.83;;;;;;;;;;5010771;28;20834;-68
2023/10/30 04:55:50;;;;;;;1.90;1.07;;;;;;;;;;5004517;28;20524;-68
2023/10/30 04:58:17;;;;;;;2.60;0.90;;;;;;;;;;5008300;28;20448;-68
2023/10/30 05:00:46;;;;;;;2.20;0.97;;;;;;;;;;5001696;28;20468;-68
2023/10/30 05:03:13;;;;;;;1.97;0.70;;;;;;;;;;5006373;28;20459;-69
2023/10/30 05:05:40;;;;;;;2.43;0.90;;;;;;;;;;5001936;28;20475;-69
2023/10/30 05:08:08;;;;;;;2.77;0.80;;;;;;;;;;5003815;28;20467;-69
2023/10/30 05:10:35;;;;;;;3.97;0.80;;;;;;;;;;5007915;28;20804;-68
2023/10/30 05:13:02;;;;;;;2.00;0.73;;;;;;;;;;5001460;28;20449;-68
2023/10/30 05:15:29;;;;;;;2.20;0.90;;;;;;;;;;5001750;28;20838;-68
2023/10/30 05:17:57;;;;;;;4.50;1.43;;;;;;;;;;5010841;28;20538;-68
2023/10/30 05:20:24;;;;;;;2.23;1.00;;;;;;;;;;5009325;28;20444;-68
2023/10/30 05:22:51;;;;;;;1.90;1.00;;;;;;;;;;5002121;28;20457;-68
2023/10/30 05:25:20;;;;;;;2.00;0.90;;;;;;;;;;5002544;28;20991;-68
2023/10/30 05:27:47;;;;;;;1.90;0.70;;;;;;;;;;5009263;28;20460;-68
2023/10/30 05:30:15;;;;;;;1.90;0.93;;;;;;;;;;5003457;28;20444;-68
2023/10/30 05:32:42;;;;;;;2.20;0.80;;;;;;;;;;5000507;28;20464;-68
2023/10/30 05:35:10;;;;;;;2.03;0.70;;;;;;;;;;5011813;28;20565;-68
2023/10/30 05:37:37;;;;;;;2.43;0.90;;;;;;;;;;5010513;28;20811;-68
2023/10/30 05:40:05;;;;;;;1.83;0.90;;;;;;;;;;5012618;28;20447;-68
2023/10/30 05:42:32;;;;;;;2.03;0.97;;;;;;;;;;4998183;28;20457;-68
2023/10/30 05:44:59;;;;;;;2.10;1.10;;;;;;;;;;5006255;28;21390;-68
2023/10/30 05:47:26;;;;;;;2.87;1.13;;;;;;;;;;5007831;28;20463;-68
2023/10/30 05:49:53;;;;;;;1.70;0.80;;;;;;;;;;4999596;28;20846;-68
2023/10/30 05:52:21;;;;;;;5.57;1.23;;;;;;;;;;5003018;28;20919;-68
2023/10/30 05:54:48;;;;;;;2.20;0.90;;;;;;;;;;5006381;28;20482;-68
2023/10/30 05:57:17;;;;;;;2.30;0.90;;;;;;;;;;5006572;28;20452;-68
2023/10/30 05:59:44;;;;;;;2.17;0.93;;;;;;;;;;5010581;28;20514;-68
2023/10/30 06:02:11;;;;;;;2.23;1.20;;;;;;;;;;5002250;28;20452;-68
2023/10/30 06:04:38;;;;;;;2.20;1.10;;;;;;;;;;5004975;28;20460;-67
2023/10/30 06:07:05;;;;;;;2.23;0.90;;;;;;;;;;5005476;28;20471;-68
2023/10/30 06:09:34;;;;;;;2.60;1.23;;;;;;;;;;4998612;28;20455;-67
2023/10/30 06:12:02;;;;;;;2.13;1.13;;;;;;;;;;5005803;28;20463;-68
2023/10/30 06:14:29;;;;;;;2.83;1.70;;;;;;;;;;4995729;28;20982;-68
2023/10/30 06:16:58;;;;;;;2.20;1.20;;;;;;;;;;5008405;28;20554;-67
2023/10/30 06:19:25;;;;;;;2.20;1.20;;;;;;;;;;5000725;28;20464;-69
2023/10/30 06:21:52;;;;;;;2.60;1.10;;;;;;;;;;5008184;28;20954;-69
2023/10/30 06:24:19;;;;;;;2.33;1.53;;;;;;;;;;5005122;28;20444;-68
2023/10/30 06:26:48;;;;;;;2.40;1.20;;;;;;;;;;5013014;28;20498;-67
2023/10/30 06:29:15;;;;;;;3.23;1.47;;;;;;;;;;5017319;28;20471;-68
2023/10/30 06:31:42;;;;;;;4.23;1.50;;;;;;;;;;5005767;28;20464;-67
2023/10/30 06:34:09;;;;;;;2.30;0.97;;;;;;;;;;5009593;28;20449;-68
2023/10/30 06:36:36;;;;;;;2.53;1.00;;;;;;;;;;5010014;28;20571;-68
2023/10/30 06:39:04;;;;;;;2.50;1.33;;;;;;;;;;5010152;28;20536;-67
2023/10/30 06:41:31;;;;;;;2.30;1.27;;;;;;;;;;5015708;28;20460;-67
2023/10/30 06:43:59;;;;;;;3.50;2.50;;;;;;;;;;5003714;28;20467;-70
2023/10/30 06:46:27;;;;;;;7.40;2.07;;;;;;;;;;5007916;28;20848;-68
2023/10/30 06:48:54;;;;;;;2.57;1.17;;;;;;;;;;5004894;28;20728;-68
2023/10/30 06:51:21;;;;;;;2.70;1.70;;;;;;;;;;5007144;28;20447;-68
2023/10/30 06:53:48;;;;;;;3.73;2.13;;;;;;;;;;5009533;28;20448;-68
2023/10/30 06:56:15;;;;;;;3.27;1.80;;;;;;;;;;5011553;28;20495;-68
2023/10/30 06:58:42;;;;;;;2.87;1.80;;;;;;;;;;5010278;28;20447;-69
2023/10/30 07:01:10;;;;;;;3.07;1.30;;;;;;;;;;5017953;28;20451;-69
2023/10/30 07:03:37;;;;;;;3.87;2.50;;;;;;;;;;5014610;28;20523;-68
2023/10/30 07:06:05;;;;;;;3.30;2.13;;;;;;;;;;5014311;28;20475;-68
2023/10/30 07:08:32;;;;;;;2.70;1.60;;;;;;;;;;5023464;28;20474;-68
2023/10/30 07:11:00;;;;;;;5.13;2.23;;;;;;;;;;5016092;28;20471;-68
2023/10/30 07:13:27;;;;;;;3.00;1.90;;;;;;;;;;5020390;28;20876;-69
2023/10/30 07:15:54;;;;;;;2.30;1.47;;;;;;;;;;5024935;28;20969;-70
2023/10/30 07:18:23;;;;;;;3.87;2.13;;;;;;;;;;5022149;28;20922;-69
2023/10/30 07:20:50;;;;;;;2.70;1.70;;;;;;;;;;5010477;28;20551;-69
2023/10/30 07:23:17;;;;;;;5.30;2.07;;;;;;;;;;5015583;28;21831;-70
2023/10/30 07:25:44;;;;;;;4.70;2.27;;;;;;;;;;5023296;28;20475;-69
2023/10/30 07:28:16;;;;;;;4.00;2.37;;;;;;;;;;5013927;28;20454;-69
2023/10/30 07:30:43;;;;;;;3.00;2.13;;;;;;;;;;5008507;28;20454;-69
2023/10/30 07:33:10;;;;;;;5.67;2.30;;;;;;;;;;5016756;28;20816;-69
2023/10/30 07:35:38;;;;;;;2.73;1.80;;;;;;;;;;5008616;28;20484;-69
2023/10/30 07:38:05;;;;;;;3.87;2.50;;;;;;;;;;5003202;28;20518;-67
2023/10/30 07:40:32;;;;;;;4.57;2.33;;;;;;;;;;5008591;28;20464;-70
2023/10/30 07:42:59;;;;;;;4.17;2.60;;;;;;;;;;5004578;28;20894;-70
2023/10/30 07:45:26;;;;;;;6.80;2.90;;;;;;;;;;5010397;28;21005;-69
2023/10/30 07:47:54;;;;;;;2.57;1.80;;;;;;;;;;5009334;28;20440;-69
2023/10/30 07:50:21;;;;;;;3.50;2.23;;;;;;;;;;5009405;28;20790;-69
2023/10/30 07:52:49;;;;;;;4.17;2.47;;;;;;;;;;5002193;28;20463;-70
2023/10/30 07:55:17;;;;;;;6.60;3.00;;;;;;;;;;5003153;28;20484;-70
2023/10/30 07:57:43;;;;;;;4.57;2.37;;;;;;;;;;5003398;28;20627;-70
2023/10/30 08:00:11;;;;;;;4.00;2.60;;;;;;;;;;4995449;28;20534;-70
2023/10/30 08:02:39;;;;;;;4.63;2.40;;;;;;;;;;5008465;28;20522;-70
2023/10/30 08:05:07;;;;;;;6.10;2.43;;;;;;;;;;4998338;28;20468;-70
2023/10/30 08:07:35;;;;;;;4.60;2.80;;;;;;;;;;5006868;28;20452;-70
2023/10/30 08:10:03;;;;;;;3.30;2.10;;;;;;;;;;5010122;28;20456;-70
2023/10/30 08:12:30;;;;;;;4.60;2.50;;;;;;;;;;5010863;28;20452;-69
2023/10/30 08:14:59;;;;;;;4.27;2.97;;;;;;;;;;5007572;28;21830;-69
2023/10/30 08:17:26;;;;;;;4.37;2.67;;;;;;;;;;5007129;28;20464;-69
2023/10/30 08:19:53;;;;;;;11.23;3.30;;;;;;;;;;5009366;28;20468;-69
2023/10/30 08:22:21;;;;;;;4.50;2.73;;;;;;;;;;5001775;28;20468;-69
2023/10/30 08:24:48;;;;;;;3.80;2.80;;;;;;;;;;5003689;28;20460;-69
2023/10/30 08:27:16;;;;;;;4.13;2.80;;;;;;;;;;5005641;28;20453;-69
2023/10/30 08:29:43;;;;;;;4.63;2.50;;;;;;;;;;5003931;28;20507;-68
2023/10/30 08:32:11;;;;;;;5.03;2.97;;;;;;;;;;5010606;28;20465;-68
2023/10/30 08:34:38;;;;;;;3.23;1.70;;;;;;;;;;5012197;28;20576;-68
2023/10/30 08:37:05;;;;;;;5.47;2.17;;;;;;;;;;5007454;28;20476;-68
2023/10/30 08:39:32;;;;;;;3.43;2.00;;;;;;;;;;5011722;28;20464;-68
2023/10/30 08:41:59;;;;;;;3.40;2.00;;;;;;;;;;5004631;28;20946;-68
2023/10/30 08:44:27;;;;;;;7.63;3.07;;;;;;;;;;5011232;28;20459;-68
2023/10/30 08:46:54;;;;;;;6.40;2.57;;;;;;;;;;5009007;28;20479;-68
2023/10/30 08:49:21;;;;;;;4.60;2.40;;;;;;;;;;5011595;28;20452;-68
2023/10/30 08:51:49;;;;;;;5.00;2.47;;;;;;;;;;5005137;28;20465;-68
2023/10/30 08:54:16;;;;;;;4.70;1.93;;;;;;;;;;5008071;28;20456;-68
2023/10/30 08:56:43;;;;;;;4.13;2.00;;;;;;;;;;5007538;28;20480;-68
2023/10/30 08:59:12;;;;;;;3.50;1.77;;;;;;;;;;5002389;28;20904;-68
2023/10/30 09:01:41;;;;;;;3.43;1.90;;;;;;;;;;5003100;28;20870;-68
2023/10/30 09:04:08;;;;;;;4.30;2.30;;;;;;;;;;5004386;28;20580;-70
2023/10/30 09:06:35;;;;;;;3.50;1.90;;;;;;;;;;5007713;28;20476;-70
2023/10/30 09:09:03;;;;;;;3.33;1.77;;;;;;;;;;5006105;28;20452;-69
2023/10/30 09:11:30;;;;;;;5.20;2.00;;;;;;;;;;5005724;28;20502;-69
2023/10/30 09:13:57;;;;;;;3.20;1.60;;;;;;;;;;5007915;28;20972;-69
2023/10/30 09:16:24;;;;;;;3.37;1.93;;;;;;;;;;4999193;28;20479;-69
2023/10/30 09:18:54;;;;;;;4.10;2.30;;;;;;;;;;5011866;28;20448;-69
2023/10/30 09:21:21;;;;;;;3.93;2.03;;;;;;;;;;5000846;28;20466;-69
2023/10/30 09:23:48;;;;;;;3.30;1.70;;;;;;;;;;5001783;28;20460;-69
2023/10/30 09:26:16;;;;;;;2.77;1.67;;;;;;;;;;5002274;28;20567;-69
2023/10/30 09:28:43;;;;;;;3.00;1.70;;;;;;;;;;5013549;28;20456;-69
2023/10/30 09:31:10;;;;;;;4.40;2.13;;;;;;;;;;5007932;28;20460;-69
2023/10/30 09:33:37;;;;;;;2.90;1.50;;;;;;;;;;5005519;28;20839;-69
2023/10/30 09:36:06;;;;;;;3.37;1.73;;;;;;;;;;5011245;28;20483;-69
2023/10/30 09:38:33;;;;;;;6.63;1.90;;;;;;;;;;5006311;28;20471;-69
2023/10/30 09:41:01;;;;;;;2.83;1.70;;;;;;;;;;5003472;28;20459;-69
2023/10/30 09:43:29;;;;;;;2.90;1.57;;;;;;;;;;5011515;28;20547;-69
2023/10/30 09:45:58;;;;;;;2.97;1.73;;;;;;;;;;4999692;28;20507;-69
2023/10/30 09:48:28;;;;;;;3.40;1.60;;;;;;;;;;5009993;28;20639;-69
2023/10/30 09:50:55;;;;;;;3.97;2.10;;;;;;;;;;5007176;28;20459;-69
2023/10/30 09:53:24;;;;;;;2.37;1.10;;;;;;;;;;5008301;28;20445;-69
2023/10/30 09:55:54;;;;;;;3.87;1.60;;;;;;;;;;4999521;28;20675;-69
2023/10/30 09:58:22;;;;;;;5.67;2.67;;;;;;;;;;4999327;28;20445;-69
2023/10/30 10:00:49;;;;;;;3.30;1.70;;;;;;;;;;5004908;28;20495;-69
2023/10/30 10:03:17;;;;;;;2.97;1.87;;;;;;;;;;5008178;28;20456;-69
2023/10/30 10:05:44;;;;;;;3.50;1.50;;;;;;;;;;5003197;28;20550;-68
2023/10/30 10:08:12;;;;;;;4.73;1.67;;;;;;;;;;5009459;28;20822;-69
2023/10/30 10:11:00;;;;;;;3.27;1.77;;;;;;;;;;5010141;28;20452;-69
2023/10/30 10:13:28;;;;;;;3.70;2.10;;;;;;;;;;5002024;28;20896;-70
2023/10/30 10:15:55;;;;;;;3.87;1.93;;;;;;;;;;5000108;28;20483;-69
2023/10/30 10:18:25;;;;;;;2.00;1.23;;;;;;;;;;4999535;28;20471;-70
2023/10/30 10:20:56;;;;;;;2.73;1.80;;;;;;;;;;5004847;28;20540;-70
2023/10/30 10:23:24;;;;;;;3.10;1.43;;;;;;;;;;5003052;28;20468;-69
2023/10/30 10:25:56;;;;;;;2.60;1.60;;;;;;;;;;5006245;28;20849;-69
2023/10/30 10:28:24;;;;;;;2.03;1.40;;;;;;;;;;5001033;28;21080;-69
2023/10/30 10:30:53;;;;;;;2.93;1.30;;;;;;;;;;5003110;28;20460;-68
2023/10/30 10:33:21;;;;;;;3.43;1.53;;;;;;;;;;5009261;28;20547;-69
2023/10/30 10:35:49;;;;;;;2.47;1.47;;;;;;;;;;5001863;28;20518;-71
2023/10/30 10:38:17;;;;;;;3.03;1.57;;;;;;;;;;5006451;28;20467;-70
2023/10/30 10:40:45;;;;;;;2.40;1.70;;;;;;;;;;5009827;28;20546;-70
2023/10/30 10:43:13;;;;;;;2.47;1.50;;;;;;;;;;5009308;28;20506;-69
2023/10/30 10:45:42;;;;;;;2.50;1.37;;;;;;;;;;5010675;28;21001;-69
2023/10/30 10:48:09;;;;;;;3.23;1.23;;;;;;;;;;5007584;28;20456;-69
2023/10/30 10:50:37;;;;;;;2.50;1.40;;;;;;;;;;5008066;28;20538;-70
2023/10/30 10:53:05;;;;;;;3.17;1.57;;;;;;;;;;4997544;28;20455;-69
2023/10/30 10:55:35;;;;;;;3.77;1.80;;;;;;;;;;5008928;28;20515;-69
2023/10/30 10:58:07;;;;;;;2.50;1.33;;;;;;;;;;5004688;28;20464;-69
2023/10/30 11:00:36;;;;;;;2.10;1.03;;;;;;;;;;5011220;28;20467;-69
2023/10/30 11:03:06;;;;;;;2.70;1.47;;;;;;;;;;5002400;28;20456;-69
2023/10/30 11:05:35;;;;;;;2.27;1.50;;;;;;;;;;5006478;28;20926;-69
2023/10/30 11:08:07;;;;;;;3.60;1.47;;;;;;;;;;5004640;28;20452;-70
2023/10/30 11:10:36;;;;;;;2.47;1.27;;;;;;;;;;4997678;28;20449;-69
2023/10/30 11:13:08;;;;;;;2.07;0.97;;;;;;;;;;5003594;28;20460;-67
2023/10/30 11:15:37;;;;;;;4.23;2.03;;;;;;;;;;5011379;28;20563;-69
2023/10/30 11:18:21;;;;;;;2.37;0.90;;;;;;;;;;5013285;28;20488;-69
2023/10/30 11:20:48;;;;;;;2.30;1.20;;;;;;;;;;5005479;28;20455;-70
2023/10/30 11:23:31;;;;;;;2.60;1.10;;;;;;;;;;5011197;28;21004;-69
2023/10/30 11:25:58;;;;;;;2.37;1.03;;;;;;;;;;5005357;28;21026;-69
2023/10/30 11:28:28;;;;;;;2.07;1.00;;;;;;;;;;5012318;28;20471;-69
2023/10/30 11:30:56;;;;;;;1.60;0.60;;;;;;;;;;5008841;28;20825;-69
2023/10/30 11:33:27;;;;;;;2.57;1.20;;;;;;;;;;5005697;28;20464;-70
2023/10/30 11:36:10;;;;;;;1.90;0.90;;;;;;;;;;5002830;28;20494;-67
2023/10/30 11:38:48;;;;;;;3.67;1.27;;;;;;;;;;5005876;28;20834;-68
2023/10/30 11:41:16;;;;;;;2.23;1.00;;;;;;;;;;5002278;28;20452;-68
2023/10/30 11:43:43;;;;;;;1.60;0.70;;;;;;;;;;5008345;28;20452;-68
2023/10/30 11:46:13;;;;;;;1.77;0.70;;;;;;;;;;5003296;28;20495;-68
2023/10/30 11:48:42;;;;;;;3.73;0.90;;;;;;;;;;5010793;28;20463;-68
2023/10/30 11:51:12;;;;;;;1.67;0.60;;;;;;;;;;5009505;28;20579;-68
2023/10/30 11:53:43;;;;;;;1.67;0.73;;;;;;;;;;5008640;28;20461;-68
2023/10/30 11:56:10;;;;;;;1.90;0.83;;;;;;;;;;5005554;28;20480;-68
2023/10/30 11:58:37;;;;;;;1.90;0.90;;;;;;;;;;5008525;28;20522;-68
2023/10/30 12:01:05;;;;;;;1.80;0.83;;;;;;;;;;5004070;28;20456;-68
2023/10/30 12:03:33;;;;;;;1.77;0.80;;;;;;;;;;5010698;28;20978;-68
2023/10/30 12:06:02;;;;;;;2.37;1.00;;;;;;;;;;5009004;28;20483;-68
2023/10/30 12:08:29;;;;;;;1.70;0.70;;;;;;;;;;5002656;28;20864;-69
2023/10/30 12:10:56;;;;;;;2.33;1.00;;;;;;;;;;5008466;28;20453;-68
2023/10/30 12:13:23;;;;;;;1.70;0.83;;;;;;;;;;5007610;28;20448;-69
2023/10/30 12:15:52;;;;;;;1.57;0.70;;;;;;;;;;5010613;28;21020;-68
2023/10/30 12:18:19;;;;;;;1.83;0.90;;;;;;;;;;5008274;28;20478;-68
2023/10/30 12:20:47;;;;;;;1.73;1.17;;;;;;;;;;5002772;28;20461;-68
2023/10/30 12:23:15;;;;;;;2.43;0.80;;;;;;;;;;5010170;28;20467;-68
2023/10/30 12:25:43;;;;;;;2.13;1.00;;;;;;;;;;5000873;28;20481;-68
2023/10/30 12:28:10;;;;;;;2.40;0.97;;;;;;;;;;5006418;28;20464;-68
2023/10/30 12:30:38;;;;;;;2.00;0.73;;;;;;;;;;5004103;28;20456;-68
2023/10/30 12:33:12;;;;;;;1.70;1.00;;;;;;;;;;5012203;28;20542;-68
2023/10/30 12:35:40;;;;;;;1.60;0.70;;;;;;;;;;5002400;28;20479;-68
2023/10/30 12:38:22;;;;;;;1.77;0.80;;;;;;;;;;5002723;28;20477;-68
2023/10/30 12:40:53;;;;;;;4.63;0.90;;;;;;;;;;5009483;28;20456;-68
2023/10/30 12:43:21;;;;;;;1.80;0.70;;;;;;;;;;5006229;28;21009;-69
2023/10/30 12:45:48;;;;;;;2.40;0.77;;;;;;;;;;5003268;28;20477;-68
2023/10/30 12:48:15;;;;;;;2.47;1.07;;;;;;;;;;5005863;28;20457;-68
2023/10/30 12:50:42;;;;;;;1.60;0.63;;;;;;;;;;5000602;28;20495;-69
2023/10/30 12:53:10;;;;;;;1.80;0.73;;;;;;;;;;5008972;28;20464;-68
2023/10/30 12:55:37;;;;;;;2.00;0.80;;;;;;;;;;5010684;28;20543;-68
2023/10/30 12:58:06;;;;;;;1.90;0.80;;;;;;;;;;5007467;28;20476;-68
2023/10/30 13:00:33;;;;;;;1.70;0.80;;;;;;;;;;5007440;28;20510;-68
2023/10/30 13:03:00;;;;;;;1.70;0.73;;;;;;;;;;5000864;28;20472;-67
2023/10/30 13:05:27;;;;;;;2.00;0.90;;;;;;;;;;5005911;28;21003;-68
2023/10/30 13:07:55;;;;;;;1.87;0.87;;;;;;;;;;5002566;28;20445;-68
2023/10/30 13:10:22;;;;;;;1.80;0.80;;;;;;;;;;5005616;28;20489;-68
2023/10/30 13:12:49;;;;;;;1.90;0.80;;;;;;;;;;5004181;28;20465;-68
2023/10/30 13:15:18;;;;;;;1.70;0.80;;;;;;;;;;4997270;28;20487;-69
2023/10/30 13:17:45;;;;;;;2.30;1.00;;;;;;;;;;5005481;28;20480;-68
2023/10/30 13:20:12;;;;;;;2.50;1.00;;;;;;;;;;5005667;28;20490;-68
2023/10/30 13:22:39;;;;;;;2.97;0.63;;;;;;;;;;5007680;28;20471;-69
2023/10/30 13:25:06;;;;;;;1.50;0.63;;;;;;;;;;5003359;28;20522;-69
2023/10/30 13:27:33;;;;;;;1.80;0.80;;;;;;;;;;5002178;28;20463;-69
2023/10/30 13:30:03;;;;;;;2.20;0.80;;;;;;;;;;5007715;28;20456;-70
2023/10/30 13:32:33;;;;;;;3.37;1.07;;;;;;;;;;5008880;28;20459;-69
2023/10/30 13:35:00;;;;;;;1.87;0.63;;;;;;;;;;5009902;28;20914;-69
2023/10/30 13:37:27;;;;;;;1.90;1.00;;;;;;;;;;5009174;28;21024;-69
2023/10/30 13:39:54;;;;;;;1.80;0.77;;;;;;;;;;4998322;28;20718;-69
2023/10/30 13:42:21;;;;;;;1.80;0.67;;;;;;;;;;5006572;28;20444;-69
2023/10/30 13:44:48;;;;;;;2.63;1.23;;;;;;;;;;5001763;28;20449;-69
2023/10/30 13:47:15;;;;;;;2.53;0.80;;;;;;;;;;5003557;28;20457;-69
2023/10/30 13:49:44;;;;;;;3.27;1.03;;;;;;;;;;5011640;28;20464;-69
2023/10/30 13:52:11;;;;;;;2.87;1.20;;;;;;;;;;5008848;28;20988;-69
2023/10/30 13:54:38;;;;;;;2.57;1.17;;;;;;;;;;5014380;28;20831;-69
2023/10/30 13:57:05;;;;;;;2.10;0.90;;;;;;;;;;5008130;28;20498;-68
2023/10/30 13:59:32;;;;;;;2.87;1.10;;;;;;;;;;5010200;28;20886;-68
2023/10/30 14:01:59;;;;;;;1.87;1.00;;;;;;;;;;5009895;28;20472;-69
2023/10/30 14:04:26;;;;;;;2.73;1.10;;;;;;;;;;5017449;28;20459;-68
2023/10/30 14:06:55;;;;;;;2.03;1.10;;;;;;;;;;5005201;28;20472;-69
2023/10/30 14:09:22;;;;;;;3.33;1.20;;;;;;;;;;5006665;28;20462;-68
2023/10/30 14:11:49;;;;;;;2.10;0.80;;;;;;;;;;5010558;28;20680;-68
2023/10/30 14:14:17;;;;;;;3.27;0.90;;;;;;;;;;5008464;28;20895;-68
2023/10/30 14:16:44;;;;;;;2.60;1.30;;;;;;;;;;5004332;28;20485;-69
2023/10/30 14:19:11;;;;;;;2.50;1.30;;;;;;;;;;5015850;28;20475;-69
2023/10/30 14:21:38;;;;;;;4.13;1.70;;;;;;;;;;5013749;28;20459;-69
2023/10/30 14:24:07;;;;;;;3.00;1.10;;;;;;;;;;5005608;28;20484;-69
2023/10/30 14:26:35;;;;;;;2.30;1.00;;;;;;;;;;5001774;28;20526;-70
2023/10/30 14:29:03;;;;;;;2.53;1.20;;;;;;;;;;5014902;28;20447;-68
2023/10/30 14:31:30;;;;;;;2.17;1.23;;;;;;;;;;5002170;28;20464;-68
2023/10/30 14:33:57;;;;;;;3.03;1.40;;;;;;;;;;5012076;28;20463;-69
2023/10/30 14:36:24;;;;;;;3.20;1.40;;;;;;;;;;5009833;28;20826;-68
2023/10/30 14:38:51;;;;;;;2.47;1.53;;;;;;;;;;5005525;28;20471;-68
2023/10/30 14:41:19;;;;;;;2.73;1.30;;;;;;;;;;5004913;28;20471;-69
2023/10/30 14:43:46;;;;;;;4.80;1.77;;;;;;;;;;5001468;28;20836;-69
2023/10/30 14:46:14;;;;;;;2.73;1.43;;;;;;;;;;5010419;28;20506;-69